Redwood City — WUS6454 — position and weather

sailwx.info

Track history (hours):
 
Tides and Currents Weather Stations Pressure Air Temp Water Temp Dewpoint Dewpoint Depression Visibility Wind Speed Wind Dir Waves Ship Positions

Redwood City

Owner: STAR MARINE INC, BAINBRIDGE ISLAND, WA. More information available from US FCC via Universal Licensing System and Coast Guard Vessel Documentation Center.

Last reported at 2018-Feb-21 15:00 UTC. Time now 2018-Feb-21 15:36 UTC.
Position N 47°17' W 122°26'.

Length 21 m.

Type: Tug. MMSI: 366993250.

Date/timePositionNaut miles runAvg speedWind from/ knotsBaromVisibWave heightAir tempDewpointWater temp
2018-Feb-21 15:00N 47°17' W 122°26'1 0.1
2018-Feb-20 19:30N 47°17' W 122°25'0 0.0
2018-Feb-20 19:00N 47°17' W 122°25'0 0.0
2018-Feb-20 18:30N 47°17' W 122°25'2 5.0
2018-Feb-20 18:00N 47°19' W 122°27'5 9.1
2018-Feb-20 17:30N 47°23' W 122°23'5 9.4
2018-Feb-20 17:00N 47°27' W 122°25'5 9.5
2018-Feb-20 16:30N 47°32' W 122°27'5 9.8
2018-Feb-20 16:00N 47°36' W 122°29'2 3.2
2018-Feb-20 15:30N 47°37' W 122°31'3 5.5
2018-Feb-20 15:00N 47°36' W 122°27'4 8.1
2018-Feb-20 14:30N 47°35' W 122°22'3 5.3
2018-Feb-20 13:58N 47°32' W 122°20'1 1.3
2018-Feb-20 13:30N 47°32' W 122°19'0 0.0
2018-Feb-20 13:00N 47°32' W 122°19'0 0.0
2018-Feb-20 12:30N 47°32' W 122°19'0 0.0
2018-Feb-20 12:00N 47°32' W 122°19'0 0.0
2018-Feb-20 11:30N 47°32' W 122°19'0 0.0
2018-Feb-20 11:00N 47°32' W 122°19'0 0.0
2018-Feb-20 10:30N 47°32' W 122°19'0 0.0
2018-Feb-20 10:00N 47°32' W 122°19'0 0.0
2018-Feb-20 09:30N 47°32' W 122°19'0 0.0
2018-Feb-20 08:59N 47°32' W 122°19'0 0.0
2018-Feb-20 08:30N 47°32' W 122°19'0 0.0
2018-Feb-20 08:00N 47°32' W 122°19'0 0.0
2018-Feb-20 07:30N 47°32' W 122°19'0 0.0
2018-Feb-20 07:00N 47°32' W 122°19'0 0.0
2018-Feb-20 06:29N 47°32' W 122°19'0 0.0
2018-Feb-20 06:00N 47°32' W 122°19'0 0.0
2018-Feb-20 05:30N 47°32' W 122°19'0 0.0
2018-Feb-20 05:00N 47°32' W 122°19'0 0.0
2018-Feb-20 04:30N 47°32' W 122°19'0 0.1
2018-Feb-20 04:00N 47°32' W 122°19'1 1.5
2018-Feb-20 03:30N 47°33' W 122°20'3 6.2
2018-Feb-20 02:59N 47°36' W 122°22'4 7.6
2018-Feb-20 02:30N 47°38' W 122°25'4 8.4
2018-Feb-20 02:00N 47°43' W 122°26'5 9.1
2018-Feb-20 01:30N 47°47' W 122°25'4 8.8
2018-Feb-20 01:00N 47°51' W 122°23'5 9.0
2018-Feb-20 00:30N 47°56' W 122°21'4 8.1
2018-Feb-20 00:00N 47°60' W 122°21'5 7.5
2018-Feb-19 23:21N 48°04' W 122°25'20 6.6
2018-Feb-19 20:21N 48°23' W 122°30'2 6.1
2018-Feb-19 19:59N 48°26' W 122°30'3 5.8
2018-Feb-19 19:30N 48°28' W 122°31'3 6.2
2018-Feb-19 19:00N 48°31' W 122°33'3 5.9
2018-Feb-19 18:30N 48°34' W 122°34'3 5.8
2018-Feb-19 18:00N 48°37' W 122°35'3 5.8
2018-Feb-19 17:30N 48°39' W 122°33'3 5.8
2018-Feb-19 17:00N 48°42' W 122°32'1 2.7
2018-Feb-19 16:30N 48°43' W 122°31'0 0.0
2018-Feb-19 15:53N 48°43' W 122°31'3 6.9
2018-Feb-19 15:30N 48°41' W 122°32'4 8.6
2018-Feb-19 15:00N 48°37' W 122°34'4 8.9
2018-Feb-19 14:30N 48°32' W 122°34'5 9.5
2018-Feb-19 13:59N 48°28' W 122°31'4 7.7
2018-Feb-19 13:26N 48°23' W 122°30'3 7.2
2018-Feb-19 12:58N 48°21' W 122°33'4 8.5
2018-Feb-19 12:29N 48°17' W 122°31'18 7.9
2018-Feb-19 10:14N 48°00' W 122°21'2 9.0
2018-Feb-19 10:00N 47°58' W 122°20'4 8.5
2018-Feb-19 09:30N 47°54' W 122°22'4 7.4
2018-Feb-19 09:00N 47°51' W 122°24'4 7.1
2018-Feb-19 08:30N 47°47' W 122°25'3 6.7
2018-Feb-19 08:00N 47°44' W 122°26'3 7.0
2018-Feb-19 07:30N 47°41' W 122°27'2 4.3
2018-Feb-19 07:00N 47°39' W 122°28'2 4.1
2018-Feb-19 06:30N 47°37' W 122°29'2 3.0
2018-Feb-19 06:00N 47°37' W 122°31'  
2018-Feb-16 00:17N 47°37' W 122°31'1 4.5
2018-Feb-16 00:00N 47°37' W 122°30'4 7.7
2018-Feb-15 23:30N 47°33' W 122°31'4 7.5
2018-Feb-15 23:00N 47°29' W 122°30'510.6
2018-Feb-15 22:30N 47°24' W 122°32'510.0
2018-Feb-15 22:00N 47°19' W 122°30'4 8.4
2018-Feb-15 21:30N 47°17' W 122°25'0 0.5
2018-Feb-15 20:55N 47°17' W 122°25'1 2.5
2018-Feb-15 20:30N 47°17' W 122°26'0 0.2
2018-Feb-15 20:00N 47°17' W 122°26'0 0.4
2018-Feb-15 19:30N 47°17' W 122°26'0 0.0
2018-Feb-15 19:00N 47°17' W 122°26'0 0.0
2018-Feb-15 18:30N 47°17' W 122°26'0 0.1
2018-Feb-15 17:59N 47°17' W 122°26'0 0.7
2018-Feb-15 17:30N 47°17' W 122°26'1 1.0
2018-Feb-15 16:24N 47°17' W 122°25'3 7.1
2018-Feb-15 16:00N 47°20' W 122°25'5 9.5
2018-Feb-15 15:30N 47°24' W 122°23'510.2
2018-Feb-15 15:00N 47°29' W 122°26'510.4
2018-Feb-15 14:30N 47°34' W 122°27'4 7.8
2018-Feb-15 14:00N 47°37' W 122°31'0 0.0
2018-Feb-14 00:14N 47°37' W 122°31'1 6.6
2018-Feb-14 00:00N 47°37' W 122°29'511.0
2018-Feb-13 23:30N 47°42' W 122°28'5 9.4
2018-Feb-13 23:00N 47°47' W 122°28'510.4
2018-Feb-13 22:30N 47°52' W 122°29'510.2
2018-Feb-13 22:00N 47°56' W 122°33'25 9.8
2018-Feb-13 19:29N 48°19' W 122°47'4 9.2
2018-Feb-13 19:00N 48°23' W 122°46'5 9.9
2018-Feb-13 18:30N 48°28' W 122°44'510.4
2018-Feb-13 18:00N 48°33' W 122°40'510.4
2018-Feb-13 17:30N 48°37' W 122°37'510.5
2018-Feb-13 17:00N 48°42' W 122°32'2 1.5
2018-Feb-13 15:46N 48°43' W 122°31'0 0.0
2018-Feb-13 15:29N 48°43' W 122°31'0 0.0
2018-Feb-13 14:41N 48°43' W 122°31'0 0.0
2018-Feb-13 14:03N 48°43' W 122°31'0 0.0
2018-Feb-13 13:55N 48°43' W 122°31'0 0.0
2018-Feb-13 13:29N 48°43' W 122°31'0 0.0
2018-Feb-13 12:24N 48°43' W 122°31'0 0.0
2018-Feb-13 11:52N 48°43' W 122°31'0 0.0
2018-Feb-13 11:09N 48°43' W 122°31'0 0.0
2018-Feb-13 10:58N 48°43' W 122°31'0 0.0
2018-Feb-13 10:30N 48°43' W 122°31'0 0.0
2018-Feb-13 10:00N 48°43' W 122°31'0 0.0
2018-Feb-13 09:26N 48°43' W 122°31'1 2.0
2018-Feb-13 09:00N 48°43' W 122°32'4 8.0
2018-Feb-13 08:30N 48°39' W 122°34'4 8.2
2018-Feb-13 08:00N 48°36' W 122°38'5 9.8
2018-Feb-13 07:30N 48°32' W 122°41'5 9.6
2018-Feb-13 07:00N 48°28' W 122°44'4 8.3
2018-Feb-13 06:29N 48°23' W 122°44'25 8.3
2018-Feb-13 03:28N 47°59' W 122°35'4 9.6
2018-Feb-13 03:00N 47°56' W 122°30'4 8.1
2018-Feb-13 02:30N 47°52' W 122°28'4 8.3
2018-Feb-13 02:00N 47°48' W 122°26'4 8.0
2018-Feb-13 01:30N 47°44' W 122°26'4 7.8
2018-Feb-13 01:00N 47°40' W 122°27'3 6.8
2018-Feb-13 00:30N 47°37' W 122°25'4 6.9
2018-Feb-12 23:59N 47°35' W 122°22'3 5.3
2018-Feb-12 23:30N 47°32' W 122°20'0 0.7
2018-Feb-12 23:00N 47°32' W 122°19'0 0.0
2018-Feb-12 22:30N 47°32' W 122°19'0 0.0
2018-Feb-12 22:00N 47°32' W 122°19'0 0.0
2018-Feb-12 21:30N 47°32' W 122°19'0 0.0
2018-Feb-12 21:00N 47°32' W 122°19'0 0.0
2018-Feb-12 20:30N 47°32' W 122°19'0 0.0
2018-Feb-12 20:00N 47°32' W 122°19'0 0.0
2018-Feb-12 19:30N 47°32' W 122°19'0 0.0
2018-Feb-12 19:00N 47°32' W 122°19'0 0.0
2018-Feb-12 18:30N 47°32' W 122°19'0 0.0
2018-Feb-12 18:00N 47°32' W 122°19'0 0.0
2018-Feb-12 17:30N 47°32' W 122°19'0 0.0
2018-Feb-12 17:00N 47°32' W 122°19'0 0.0
2018-Feb-12 16:30N 47°32' W 122°19'0 0.0
2018-Feb-12 16:00N 47°32' W 122°19'0 0.0
2018-Feb-12 15:30N 47°32' W 122°19'0 0.1
2018-Feb-12 15:00N 47°32' W 122°19'2 3.5
2018-Feb-12 14:30N 47°34' W 122°21'3 6.3
2018-Feb-12 14:00N 47°36' W 122°23'2 4.5
2018-Feb-12 13:30N 47°38' W 122°26'3 5.8
2018-Feb-12 13:00N 47°40' W 122°28'3 6.1
2018-Feb-12 12:30N 47°43' W 122°28'3 7.0
2018-Feb-12 12:00N 47°46' W 122°27'3 6.7
2018-Feb-12 11:30N 47°50' W 122°29'3 6.0
2018-Feb-12 10:59N 47°53' W 122°29'3 6.8
2018-Feb-12 10:30N 47°56' W 122°32'24 6.9
2018-Feb-12 07:04N 48°17' W 122°46'1 6.7
2018-Feb-12 06:59N 48°18' W 122°46'3 6.6
2018-Feb-12 06:30N 48°21' W 122°44'3 6.4
2018-Feb-12 06:00N 48°24' W 122°42'3 5.6
2018-Feb-12 05:30N 48°26' W 122°43'3 5.8
2018-Feb-12 05:00N 48°29' W 122°44'4 7.0
2018-Feb-12 04:30N 48°32' W 122°41'3 6.7
2018-Feb-12 04:00N 48°36' W 122°40'3 7.0
2018-Feb-12 03:30N 48°38' W 122°35'3 6.9
2018-Feb-12 03:00N 48°41' W 122°33'3 5.2
2018-Feb-12 02:25N 48°44' W 122°31'0 0.5
2018-Feb-12 02:00N 48°43' W 122°31'3 7.2
2018-Feb-12 01:30N 48°40' W 122°33'5 9.7
2018-Feb-12 01:00N 48°35' W 122°34'5 9.8
2018-Feb-12 00:30N 48°30' W 122°33'5 9.5
2018-Feb-11 23:57N 48°26' W 122°30'5 7.7
2018-Feb-11 23:16N 48°21' W 122°33'310.6
2018-Feb-11 23:00N 48°19' W 122°30'14 8.4
2018-Feb-11 21:20N 48°05' W 122°26'5 9.7
2018-Feb-11 20:48N 48°01' W 122°21'3 9.5
2018-Feb-11 20:30N 47°58' W 122°20'5 9.5
2018-Feb-11 20:00N 47°54' W 122°22'5 9.7
2018-Feb-11 19:30N 47°49' W 122°24'510.1
2018-Feb-11 19:00N 47°44' W 122°25'5 9.6
2018-Feb-11 18:30N 47°39' W 122°27'3 6.4
2018-Feb-11 18:00N 47°37' W 122°31'  
Track history (hours):
 
Tides and Currents Weather Stations Pressure Air Temp Water Temp Dewpoint Dewpoint Depression Visibility Wind Speed Wind Dir Waves Ship Positions

Redwood City

Owner: STAR MARINE INC, BAINBRIDGE ISLAND, WA. More information available from US FCC via Universal Licensing System and Coast Guard Vessel Documentation Center.

Last reported at 2018-Feb-21 15:00 UTC. Time now 2018-Feb-21 15:36 UTC.
Position N 47°17' W 122°26'.

Length 21 m.

Type: Tug. MMSI: 366993250.

Date/timePositionNaut miles runAvg speedWind from/ knotsBaromVisibWave heightAir tempDewpointWater temp
2018-Feb-21 15:00N 47°17' W 122°26'1 0.1
2018-Feb-20 19:30N 47°17' W 122°25'0 0.0
2018-Feb-20 19:00N 47°17' W 122°25'0 0.0
2018-Feb-20 18:30N 47°17' W 122°25'2 5.0
2018-Feb-20 18:00N 47°19' W 122°27'5 9.1
2018-Feb-20 17:30N 47°23' W 122°23'5 9.4
2018-Feb-20 17:00N 47°27' W 122°25'5 9.5
2018-Feb-20 16:30N 47°32' W 122°27'5 9.8
2018-Feb-20 16:00N 47°36' W 122°29'2 3.2
2018-Feb-20 15:30N 47°37' W 122°31'3 5.5
2018-Feb-20 15:00N 47°36' W 122°27'4 8.1
2018-Feb-20 14:30N 47°35' W 122°22'3 5.3
2018-Feb-20 13:58N 47°32' W 122°20'1 1.3
2018-Feb-20 13:30N 47°32' W 122°19'0 0.0
2018-Feb-20 13:00N 47°32' W 122°19'0 0.0
2018-Feb-20 12:30N 47°32' W 122°19'0 0.0
2018-Feb-20 12:00N 47°32' W 122°19'0 0.0
2018-Feb-20 11:30N 47°32' W 122°19'0 0.0
2018-Feb-20 11:00N 47°32' W 122°19'0 0.0
2018-Feb-20 10:30N 47°32' W 122°19'0 0.0
2018-Feb-20 10:00N 47°32' W 122°19'0 0.0
2018-Feb-20 09:30N 47°32' W 122°19'0 0.0
2018-Feb-20 08:59N 47°32' W 122°19'0 0.0
2018-Feb-20 08:30N 47°32' W 122°19'0 0.0
2018-Feb-20 08:00N 47°32' W 122°19'0 0.0
2018-Feb-20 07:30N 47°32' W 122°19'0 0.0
2018-Feb-20 07:00N 47°32' W 122°19'0 0.0
2018-Feb-20 06:29N 47°32' W 122°19'0 0.0
2018-Feb-20 06:00N 47°32' W 122°19'0 0.0
2018-Feb-20 05:30N 47°32' W 122°19'0 0.0
2018-Feb-20 05:00N 47°32' W 122°19'0 0.0
2018-Feb-20 04:30N 47°32' W 122°19'0 0.1
2018-Feb-20 04:00N 47°32' W 122°19'1 1.5
2018-Feb-20 03:30N 47°33' W 122°20'3 6.2
2018-Feb-20 02:59N 47°36' W 122°22'4 7.6
2018-Feb-20 02:30N 47°38' W 122°25'4 8.4
2018-Feb-20 02:00N 47°43' W 122°26'5 9.1
2018-Feb-20 01:30N 47°47' W 122°25'4 8.8
2018-Feb-20 01:00N 47°51' W 122°23'5 9.0
2018-Feb-20 00:30N 47°56' W 122°21'4 8.1
2018-Feb-20 00:00N 47°60' W 122°21'5 7.5
2018-Feb-19 23:21N 48°04' W 122°25'20 6.6
2018-Feb-19 20:21N 48°23' W 122°30'2 6.1
2018-Feb-19 19:59N 48°26' W 122°30'3 5.8
2018-Feb-19 19:30N 48°28' W 122°31'3 6.2
2018-Feb-19 19:00N 48°31' W 122°33'3 5.9
2018-Feb-19 18:30N 48°34' W 122°34'3 5.8
2018-Feb-19 18:00N 48°37' W 122°35'3 5.8
2018-Feb-19 17:30N 48°39' W 122°33'3 5.8
2018-Feb-19 17:00N 48°42' W 122°32'1 2.7
2018-Feb-19 16:30N 48°43' W 122°31'0 0.0
2018-Feb-19 15:53N 48°43' W 122°31'3 6.9
2018-Feb-19 15:30N 48°41' W 122°32'4 8.6
2018-Feb-19 15:00N 48°37' W 122°34'4 8.9
2018-Feb-19 14:30N 48°32' W 122°34'5 9.5
2018-Feb-19 13:59N 48°28' W 122°31'4 7.7
2018-Feb-19 13:26N 48°23' W 122°30'3 7.2
2018-Feb-19 12:58N 48°21' W 122°33'4 8.5
2018-Feb-19 12:29N 48°17' W 122°31'18 7.9
2018-Feb-19 10:14N 48°00' W 122°21'2 9.0
2018-Feb-19 10:00N 47°58' W 122°20'4 8.5
2018-Feb-19 09:30N 47°54' W 122°22'4 7.4
2018-Feb-19 09:00N 47°51' W 122°24'4 7.1
2018-Feb-19 08:30N 47°47' W 122°25'3 6.7
2018-Feb-19 08:00N 47°44' W 122°26'3 7.0
2018-Feb-19 07:30N 47°41' W 122°27'2 4.3
2018-Feb-19 07:00N 47°39' W 122°28'2 4.1
2018-Feb-19 06:30N 47°37' W 122°29'2 3.0
2018-Feb-19 06:00N 47°37' W 122°31'  
2018-Feb-16 00:17N 47°37' W 122°31'1 4.5
2018-Feb-16 00:00N 47°37' W 122°30'4 7.7
2018-Feb-15 23:30N 47°33' W 122°31'4 7.5
2018-Feb-15 23:00N 47°29' W 122°30'510.6
2018-Feb-15 22:30N 47°24' W 122°32'510.0
2018-Feb-15 22:00N 47°19' W 122°30'4 8.4
2018-Feb-15 21:30N 47°17' W 122°25'0 0.5
2018-Feb-15 20:55N 47°17' W 122°25'1 2.5
2018-Feb-15 20:30N 47°17' W 122°26'0 0.2
2018-Feb-15 20:00N 47°17' W 122°26'0 0.4
2018-Feb-15 19:30N 47°17' W 122°26'0 0.0
2018-Feb-15 19:00N 47°17' W 122°26'0 0.0
2018-Feb-15 18:30N 47°17' W 122°26'0 0.1
2018-Feb-15 17:59N 47°17' W 122°26'0 0.7
2018-Feb-15 17:30N 47°17' W 122°26'1 1.0
2018-Feb-15 16:24N 47°17' W 122°25'3 7.1
2018-Feb-15 16:00N 47°20' W 122°25'5 9.5
2018-Feb-15 15:30N 47°24' W 122°23'510.2
2018-Feb-15 15:00N 47°29' W 122°26'510.4
2018-Feb-15 14:30N 47°34' W 122°27'4 7.8
2018-Feb-15 14:00N 47°37' W 122°31'0 0.0
2018-Feb-14 00:14N 47°37' W 122°31'1 6.6
2018-Feb-14 00:00N 47°37' W 122°29'511.0
2018-Feb-13 23:30N 47°42' W 122°28'5 9.4
2018-Feb-13 23:00N 47°47' W 122°28'510.4
2018-Feb-13 22:30N 47°52' W 122°29'510.2
2018-Feb-13 22:00N 47°56' W 122°33'25 9.8
2018-Feb-13 19:29N 48°19' W 122°47'4 9.2
2018-Feb-13 19:00N 48°23' W 122°46'5 9.9
2018-Feb-13 18:30N 48°28' W 122°44'510.4
2018-Feb-13 18:00N 48°33' W 122°40'510.4
2018-Feb-13 17:30N 48°37' W 122°37'510.5
2018-Feb-13 17:00N 48°42' W 122°32'2 1.5
2018-Feb-13 15:46N 48°43' W 122°31'0 0.0
2018-Feb-13 15:29N 48°43' W 122°31'0 0.0
2018-Feb-13 14:41N 48°43' W 122°31'0 0.0
2018-Feb-13 14:03N 48°43' W 122°31'0 0.0
2018-Feb-13 13:55N 48°43' W 122°31'0 0.0
2018-Feb-13 13:29N 48°43' W 122°31'0 0.0
2018-Feb-13 12:24N 48°43' W 122°31'0 0.0
2018-Feb-13 11:52N 48°43' W 122°31'0 0.0
2018-Feb-13 11:09N 48°43' W 122°31'0 0.0
2018-Feb-13 10:58N 48°43' W 122°31'0 0.0
2018-Feb-13 10:30N 48°43' W 122°31'0 0.0
2018-Feb-13 10:00N 48°43' W 122°31'0 0.0
2018-Feb-13 09:26N 48°43' W 122°31'1 2.0
2018-Feb-13 09:00N 48°43' W 122°32'4 8.0
2018-Feb-13 08:30N 48°39' W 122°34'4 8.2
2018-Feb-13 08:00N 48°36' W 122°38'5 9.8
2018-Feb-13 07:30N 48°32' W 122°41'5 9.6
2018-Feb-13 07:00N 48°28' W 122°44'4 8.3
2018-Feb-13 06:29N 48°23' W 122°44'25 8.3
2018-Feb-13 03:28N 47°59' W 122°35'4 9.6
2018-Feb-13 03:00N 47°56' W 122°30'4 8.1
2018-Feb-13 02:30N 47°52' W 122°28'4 8.3
2018-Feb-13 02:00N 47°48' W 122°26'4 8.0
2018-Feb-13 01:30N 47°44' W 122°26'4 7.8
2018-Feb-13 01:00N 47°40' W 122°27'3 6.8
2018-Feb-13 00:30N 47°37' W 122°25'4 6.9
2018-Feb-12 23:59N 47°35' W 122°22'3 5.3
2018-Feb-12 23:30N 47°32' W 122°20'0 0.7
2018-Feb-12 23:00N 47°32' W 122°19'0 0.0
2018-Feb-12 22:30N 47°32' W 122°19'0 0.0
2018-Feb-12 22:00N 47°32' W 122°19'0 0.0
2018-Feb-12 21:30N 47°32' W 122°19'0 0.0
2018-Feb-12 21:00N 47°32' W 122°19'0 0.0
2018-Feb-12 20:30N 47°32' W 122°19'0 0.0
2018-Feb-12 20:00N 47°32' W 122°19'0 0.0
2018-Feb-12 19:30N 47°32' W 122°19'0 0.0
2018-Feb-12 19:00N 47°32' W 122°19'0 0.0
2018-Feb-12 18:30N 47°32' W 122°19'0 0.0
2018-Feb-12 18:00N 47°32' W 122°19'0 0.0
2018-Feb-12 17:30N 47°32' W 122°19'0 0.0
2018-Feb-12 17:00N 47°32' W 122°19'0 0.0
2018-Feb-12 16:30N 47°32' W 122°19'0 0.0
2018-Feb-12 16:00N 47°32' W 122°19'0 0.0
2018-Feb-12 15:30N 47°32' W 122°19'0 0.1
2018-Feb-12 15:00N 47°32' W 122°19'2 3.5
2018-Feb-12 14:30N 47°34' W 122°21'3 6.3
2018-Feb-12 14:00N 47°36' W 122°23'2 4.5
2018-Feb-12 13:30N 47°38' W 122°26'3 5.8
2018-Feb-12 13:00N 47°40' W 122°28'3 6.1
2018-Feb-12 12:30N 47°43' W 122°28'3 7.0
2018-Feb-12 12:00N 47°46' W 122°27'3 6.7
2018-Feb-12 11:30N 47°50' W 122°29'3 6.0
2018-Feb-12 10:59N 47°53' W 122°29'3 6.8
2018-Feb-12 10:30N 47°56' W 122°32'24 6.9
2018-Feb-12 07:04N 48°17' W 122°46'1 6.7
2018-Feb-12 06:59N 48°18' W 122°46'3 6.6
2018-Feb-12 06:30N 48°21' W 122°44'3 6.4
2018-Feb-12 06:00N 48°24' W 122°42'3 5.6
2018-Feb-12 05:30N 48°26' W 122°43'3 5.8
2018-Feb-12 05:00N 48°29' W 122°44'4 7.0
2018-Feb-12 04:30N 48°32' W 122°41'3 6.7
2018-Feb-12 04:00N 48°36' W 122°40'3 7.0
2018-Feb-12 03:30N 48°38' W 122°35'3 6.9
2018-Feb-12 03:00N 48°41' W 122°33'3 5.2
2018-Feb-12 02:25N 48°44' W 122°31'0 0.5
2018-Feb-12 02:00N 48°43' W 122°31'3 7.2
2018-Feb-12 01:30N 48°40' W 122°33'5 9.7
2018-Feb-12 01:00N 48°35' W 122°34'5 9.8
2018-Feb-12 00:30N 48°30' W 122°33'5 9.5
2018-Feb-11 23:57N 48°26' W 122°30'5 7.7
2018-Feb-11 23:16N 48°21' W 122°33'310.6
2018-Feb-11 23:00N 48°19' W 122°30'14 8.4
2018-Feb-11 21:20N 48°05' W 122°26'5 9.7
2018-Feb-11 20:48N 48°01' W 122°21'3 9.5
2018-Feb-11 20:30N 47°58' W 122°20'5 9.5
2018-Feb-11 20:00N 47°54' W 122°22'5 9.7
2018-Feb-11 19:30N 47°49' W 122°24'510.1
2018-Feb-11 19:00N 47°44' W 122°25'5 9.6
2018-Feb-11 18:30N 47°39' W 122°27'3 6.4
2018-Feb-11 18:00N 47°37' W 122°31'  

Dump ship's entire track history